New Orleans, Louisiana
Traffic Map
Current Weather Conditions
New Orleans, Louisiana
Scattered Clouds
Scattered Clouds
88°
Feels Like: 96°
Wind Chill: 88° Ceiling: Unl
Heat Index: 96° Visibility: 10mi
Dew Point: 73° Wind: 0mph
Humidity: 62% Direction: ° ()
Pressure: 30.02in Gusts: 0mph
Raw Report DataKVSH 290435Z AUTO 00000KT 10SM SCT035 SCT043 31/23 A3002 RMK AO1
Traffic Incident Summary
Active as of:
Severity:
Category:
InformationThere was an issue retrieving the traffic information for this location. Please try a different location or try again shortly.
Advertisements
Track Severe Weather on mobile